الصفحة الرئيسية
METAR-TAF:

METAR-TAF

مطار :

ياكوتسك, روسيا

دائرة عرض: 62-01N, خط طول: 129-43E, ارتفاع: 103 متر

مراقبة الطقس الحالي

تاريخ ووقت الإصدار 50 دقيقة قبل الساعة 23:00UTC
ريح 4 عقدة من الجنوب
درجة الحرارة -41°درجة مئوية
الرطوبة 65%
ضغط 1029 hPa
الرؤية: 0800 متر
ثلوج خفيفة, ضباب

METAR: UEEE 232300Z 19002MPS 0900 0800SW R23L/1900N -SN FG NSC M41/M45 Q1029 R23L/490150 NOSIG RMK QFE763

زمن: 08:50 (23:50 UTC)

توقعات

تاريخ ووقت الإصدار 50 دقيقة قبل الساعة 23:00UTC
التوقعات صالحة من24 الساعة 00 UTC إلى 25 الساعة 06 UTC
ريح 6 عقدة من الغرب/الجنوب الغربي
الرؤية: 0400 متر
على ارتفاع 400 قدم
ضباب
مؤقت
من 24 الساعة 00 UTC إلى 24 الساعة 12 UTC
الرؤية: 2100 متر
ملبد بالغيوم على ارتفاع 7000 قدم
ثلوج خفيفة, غشاء

TAF: UEEE 232300Z 2400/2506 24003MPS 0400 FG VV004 TEMPO 2400/2412 2100 -SN BR OVC070

أرصاد الطقس والتوقعات من أكثر من 4000 مطار (تقارير الطقس للمطار METAR والتنبؤ بالطقس بالمطارTAF).

المحطات المتاحة هي النقط الصفراء والحمراء على الخريطة.

حرك المؤشر فوق النقطة لمعرفة اسم المحطة.

ثم انقر لمعرفة أرصاد وتوقعات الطقس.

لتغيير الخارطة: اضغط على الأزرار الخضراء مع رمز الصليب الأسود للتكبير. على الزر الأخضر مع شرطة للتصغير، أو على الأسهم الخضراء للخرائط المجاورة.


METAR-TAF: